Time;durP1;ratioP1;P1;durP2;ratioP2;P2;SDS_P1;SDS_P2;PMS_P1;PMS_P2;Temp;Humidity;BMP_temperature;BMP_pressure;BME280_temperature;BME280_humidity;BME280_pressure;Samples;Min_cycle;Max_cycle;Signal;HPM_P1;HPM_P2
2023/07/26 00:00:28;;;;;;;5.13;2.90;;;15.40;99.90;;;;;;5078660;28;20422;-54
2023/07/26 00:02:55;;;;;;;6.70;3.42;;;15.50;99.90;;;;;;5078126;28;20446;-53
2023/07/26 00:05:22;;;;;;;3.67;3.00;;;15.40;99.90;;;;;;5078054;28;20436;-54
2023/07/26 00:07:49;;;;;;;5.17;3.90;;;15.30;99.90;;;;;;5078385;28;20485;-54
2023/07/26 00:10:16;;;;;;;3.88;3.00;;;15.40;99.90;;;;;;5078347;28;20431;-52
2023/07/26 00:12:43;;;;;;;4.53;3.30;;;15.30;99.90;;;;;;5078180;28;20427;-51
2023/07/26 00:15:12;;;;;;;4.15;2.80;;;15.30;99.90;;;;;;5078407;28;20490;-51
2023/07/26 00:17:39;;;;;;;4.40;3.30;;;15.40;99.90;;;;;;5078403;28;20427;-49
2023/07/26 00:20:07;;;;;;;4.30;3.90;;;15.40;99.90;;;;;;5077598;28;20476;-54
2023/07/26 00:22:34;;;;;;;3.20;2.83;;;15.40;99.90;;;;;;5076292;28;20431;-54
2023/07/26 00:25:01;;;;;;;3.50;2.38;;;15.40;99.90;;;;;;5077884;28;20481;-52
2023/07/26 00:27:28;;;;;;;3.65;2.50;;;15.40;99.90;;;;;;5076617;28;20494;-55
2023/07/26 00:29:55;;;;;;;3.78;3.13;;;15.40;99.90;;;;;;5076346;28;20419;-52
2023/07/26 00:32:23;;;;;;;5.47;3.75;;;15.40;99.90;;;;;;5077957;28;20431;-55
2023/07/26 00:34:50;;;;;;;3.90;3.50;;;15.40;99.90;;;;;;5077688;28;20434;-55
2023/07/26 00:37:17;;;;;;;4.80;3.30;;;15.30;99.90;;;;;;5077316;28;20493;-54
2023/07/26 00:39:45;;;;;;;3.20;2.90;;;15.30;99.90;;;;;;5076994;28;20431;-54
2023/07/26 00:42:17;;;;;;;2.95;2.20;;;15.40;99.90;;;;;;5077156;28;20419;-55
2023/07/26 00:44:44;;;;;;;5.10;2.70;;;15.30;99.90;;;;;;5076672;28;20473;-54
2023/07/26 00:47:11;;;;;;;3.65;3.10;;;15.30;99.90;;;;;;5076133;28;20492;-56
2023/07/26 00:49:40;;;;;;;2.95;2.65;;;15.20;99.90;;;;;;5067510;28;20427;-54
2023/07/26 00:52:08;;;;;;;3.58;2.70;;;15.20;99.90;;;;;;5075860;28;20435;-55
2023/07/26 00:54:35;;;;;;;3.55;2.30;;;15.30;99.90;;;;;;5075816;28;20431;-53
2023/07/26 00:57:02;;;;;;;4.60;2.78;;;15.40;99.90;;;;;;5075238;28;20431;-50
2023/07/26 00:59:29;;;;;;;3.60;2.50;;;15.40;99.90;;;;;;5075344;28;20431;-53
2023/07/26 01:01:56;;;;;;;3.97;2.30;;;15.40;99.90;;;;;;5075566;28;20431;-51
2023/07/26 01:04:23;;;;;;;2.67;1.75;;;15.30;99.90;;;;;;5075230;28;20419;-55
2023/07/26 01:07:01;;;;;;;5.10;2.20;;;15.30;99.90;;;;;;5074827;28;20843;-56
2023/07/26 01:09:34;;;;;;;4.00;1.77;;;15.20;99.90;;;;;;5074835;28;20420;-54
2023/07/26 01:12:06;;;;;;;3.72;2.17;;;15.20;99.90;;;;;;5076290;28;20485;-55
2023/07/26 01:14:38;;;;;;;3.60;1.57;;;15.10;99.90;;;;;;5075878;28;20910;-55
2023/07/26 01:17:05;;;;;;;2.85;1.60;;;15.00;99.90;;;;;;5076033;28;20440;-50
2023/07/26 01:19:32;;;;;;;2.50;1.60;;;15.10;99.90;;;;;;5076154;28;20788;-55
2023/07/26 01:22:01;;;;;;;1.52;1.27;;;15.10;99.90;;;;;;5076186;28;20496;-53
2023/07/26 01:24:28;;;;;;;2.65;1.40;;;15.20;99.90;;;;;;5076004;28;20433;-56
2023/07/26 01:26:55;;;;;;;3.50;1.52;;;15.10;99.90;;;;;;5075251;28;20496;-53
2023/07/26 01:29:22;;;;;;;2.60;1.55;;;15.30;99.90;;;;;;5075459;28;20843;-54
2023/07/26 01:31:49;;;;;;;2.33;1.40;;;15.30;99.90;;;;;;5075986;28;20439;-51
2023/07/26 01:34:16;;;;;;;5.15;1.30;;;15.20;99.90;;;;;;5075557;28;20431;-55
2023/07/26 01:36:45;;;;;;;1.60;1.10;;;15.10;99.90;;;;;;5075757;28;20492;-55
2023/07/26 01:39:14;;;;;;;1.20;1.00;;;15.00;99.90;;;;;;5075570;28;20785;-53
2023/07/26 01:41:42;;;;;;;3.30;1.00;;;14.90;99.90;;;;;;5075578;28;20431;-52
2023/07/26 01:44:09;;;;;;;1.30;0.97;;;14.90;99.90;;;;;;5009606;28;1888234;-52
2023/07/26 01:46:36;;;;;;;1.90;1.00;;;14.90;99.90;;;;;;5068685;28;20507;-54
2023/07/26 01:49:03;;;;;;;1.60;1.30;;;14.80;99.90;;;;;;5076263;28;20439;-49
2023/07/26 01:51:30;;;;;;;1.92;1.48;;;14.70;99.90;;;;;;5076531;28;20419;-55
2023/07/26 01:53:57;;;;;;;2.10;1.40;;;14.60;99.90;;;;;;5075888;28;20728;-50
2023/07/26 01:56:25;;;;;;;3.50;1.10;;;14.60;99.90;;;;;;5075594;28;20729;-51
2023/07/26 01:58:52;;;;;;;2.10;1.30;;;14.70;99.90;;;;;;5076221;28;20500;-54
2023/07/26 02:01:19;;;;;;;1.80;1.10;;;14.70;99.90;;;;;;5076430;28;20488;-55
2023/07/26 02:03:46;;;;;;;2.20;1.10;;;14.70;99.90;;;;;;5075980;28;20430;-49
2023/07/26 02:06:13;;;;;;;1.70;1.03;;;14.60;99.90;;;;;;5076179;28;20427;-51
2023/07/26 02:08:40;;;;;;;1.40;1.10;;;14.60;99.90;;;;;;5076282;28;20807;-55
2023/07/26 02:11:07;;;;;;;1.90;1.10;;;14.60;99.90;;;;;;5076492;28;20431;-52
2023/07/26 02:13:36;;;;;;;1.27;0.90;;;14.70;99.90;;;;;;5075476;28;20485;-55
2023/07/26 02:16:03;;;;;;;2.10;0.90;;;14.70;99.90;;;;;;5075178;28;20500;-54
2023/07/26 02:18:30;;;;;;;1.20;0.90;;;14.90;99.90;;;;;;5076062;28;20420;-54
2023/07/26 02:20:57;;;;;;;2.30;1.23;;;14.80;99.90;;;;;;5075317;28;20529;-53
2023/07/26 02:23:24;;;;;;;2.10;1.10;;;14.70;99.90;;;;;;5075735;28;20501;-52
2023/07/26 02:25:51;;;;;;;1.63;1.20;;;14.70;99.90;;;;;;5075279;28;20537;-51
2023/07/26 02:28:18;;;;;;;2.00;1.10;;;14.60;99.90;;;;;;5075608;28;20490;-52
2023/07/26 02:30:46;;;;;;;1.80;1.10;;;14.40;99.90;;;;;;5074393;28;20431;-52
2023/07/26 02:33:13;;;;;;;1.50;1.00;;;14.40;99.90;;;;;;5074636;28;20665;-52
2023/07/26 02:35:40;;;;;;;1.40;0.90;;;14.50;99.90;;;;;;5075084;28;20481;-52
2023/07/26 02:38:07;;;;;;;1.10;0.90;;;14.60;99.90;;;;;;5075141;28;20496;-52
2023/07/26 02:40:34;;;;;;;1.60;0.90;;;14.60;99.90;;;;;;5075275;28;20431;-50
2023/07/26 02:43:01;;;;;;;1.40;1.00;;;14.70;99.90;;;;;;5075408;28;20501;-53
2023/07/26 02:45:28;;;;;;;2.97;0.95;;;14.80;99.90;;;;;;5075107;28;20423;-57
2023/07/26 02:47:56;;;;;;;1.80;1.00;;;14.70;99.90;;;;;;5074927;28;20857;-54
2023/07/26 02:50:23;;;;;;;1.90;1.20;;;14.70;99.90;;;;;;5074731;28;20431;-51
2023/07/26 02:52:50;;;;;;;1.60;1.00;;;14.50;99.90;;;;;;5074874;28;20713;-53
2023/07/26 02:55:17;;;;;;;1.27;1.00;;;14.40;99.90;;;;;;5074802;28;20924;-54
2023/07/26 02:57:44;;;;;;;1.40;0.90;;;14.30;99.90;;;;;;5074518;28;20436;-55
2023/07/26 03:00:12;;;;;;;1.33;0.98;;;14.20;99.90;;;;;;5074021;28;20786;-53
2023/07/26 03:02:39;;;;;;;1.63;1.00;;;14.20;99.90;;;;;;5074277;28;20411;-55
2023/07/26 03:05:08;;;;;;;1.70;1.00;;;14.20;99.90;;;;;;5073525;28;20954;-54
2023/07/26 03:07:35;;;;;;;1.90;0.90;;;14.30;99.90;;;;;;5073438;28;20451;-54
2023/07/26 03:10:02;;;;;;;1.77;1.00;;;14.30;99.90;;;;;;5073070;28;20434;-50
2023/07/26 03:12:29;;;;;;;1.52;0.90;;;14.30;99.90;;;;;;5069952;28;20411;-51
2023/07/26 03:14:56;;;;;;;1.10;0.80;;;14.30;99.90;;;;;;5070942;28;20734;-51
2023/07/26 03:17:23;;;;;;;1.20;0.80;;;14.40;99.90;;;;;;5053483;28;20441;-54
2023/07/26 03:19:50;;;;;;;1.10;0.70;;;14.60;99.90;;;;;;5054932;28;20429;-50
2023/07/26 03:22:19;;;;;;;1.75;0.90;;;14.60;99.90;;;;;;5054434;28;20845;-55
2023/07/26 03:24:45;;;;;;;1.20;0.90;;;14.50;99.90;;;;;;5054370;28;20433;-55
2023/07/26 03:27:12;;;;;;;1.30;0.80;;;14.60;99.90;;;;;;5054338;28;20424;-55
2023/07/26 03:29:39;;;;;;;1.03;0.80;;;14.60;99.90;;;;;;5054356;28;20833;-55
2023/07/26 03:32:07;;;;;;;2.20;1.50;;;14.60;99.90;;;;;;5054765;28;20799;-56
2023/07/26 03:34:34;;;;;;;1.38;0.80;;;14.50;99.90;;;;;;5054214;28;20494;-56
2023/07/26 03:37:02;;;;;;;1.10;0.90;;;14.60;99.90;;;;;;5053074;28;20448;-55
2023/07/26 03:39:30;;;;;;;2.35;0.90;;;14.60;99.90;;;;;;5052295;28;20471;-55
2023/07/26 03:41:57;;;;;;;1.30;0.80;;;14.70;99.90;;;;;;5052611;28;20428;-54
2023/07/26 03:44:24;;;;;;;1.00;0.70;;;14.80;99.90;;;;;;5053416;28;20515;-55
2023/07/26 03:46:51;;;;;;;2.40;0.90;;;14.80;99.90;;;;;;5053300;28;20425;-53
2023/07/26 03:49:18;;;;;;;1.30;0.90;;;14.70;99.90;;;;;;5053135;28;20505;-56
2023/07/26 03:51:45;;;;;;;1.60;0.80;;;14.70;99.90;;;;;;5054036;28;20433;-53
2023/07/26 03:54:12;;;;;;;1.10;0.70;;;14.70;14.50;;;;;;5054325;28;20481;-56
2023/07/26 03:56:40;;;;;;;2.20;0.80;;;14.80;1.00;;;;;;5054554;28;20436;-52
2023/07/26 03:59:07;;;;;;;1.47;0.83;;;14.70;1.00;;;;;;5054250;28;20429;-50
2023/07/26 04:01:34;;;;;;;1.00;0.80;;;14.70;1.00;;;;;;5053519;28;20499;-55
2023/07/26 04:04:01;;;;;;;1.70;0.90;;;14.50;1.00;;;;;;5054032;28;20448;-51
2023/07/26 04:06:28;;;;;;;1.45;0.80;;;14.60;9.30;;;;;;5054691;28;20416;-56
2023/07/26 04:08:55;;;;;;;1.60;1.00;;;14.70;1.00;;;;;;5054133;28;20417;-54
2023/07/26 04:11:22;;;;;;;1.30;1.00;;;14.70;1.00;;;;;;5053698;28;20528;-57
2023/07/26 04:13:50;;;;;;;1.70;0.90;;;14.70;1.00;;;;;;5053887;28;20433;-54
2023/07/26 04:16:19;;;;;;;2.10;0.90;;;14.60;1.00;;;;;;5054453;28;20502;-56
2023/07/26 04:18:46;;;;;;;1.60;0.93;;;14.70;7.70;;;;;;5053957;28;20424;-55
2023/07/26 04:21:14;;;;;;;2.63;1.10;;;14.70;1.00;;;;;;5053706;28;20539;-56
2023/07/26 04:23:41;;;;;;;2.60;1.00;;;14.70;1.00;;;;;;5071746;28;20423;-53
2023/07/26 04:26:09;;;;;;;1.95;0.90;;;14.70;1.00;;;;;;5074084;28;20477;-54
2023/07/26 04:28:36;;;;;;;1.38;0.90;;;14.70;12.30;;;;;;5044779;28;20857;-53
2023/07/26 04:31:04;;;;;;;1.75;1.00;;;14.70;5.50;;;;;;5059803;28;20427;-54
2023/07/26 04:33:32;;;;;;;2.00;1.17;;;14.70;22.00;;;;;;5091872;28;20857;-56
2023/07/26 04:35:58;;;;;;;1.08;0.90;;;14.70;5.50;;;;;;5092817;28;20410;-53
2023/07/26 04:38:26;;;;;;;1.60;1.00;;;14.60;4.20;;;;;;5095991;28;20479;-53
2023/07/26 04:40:53;;;;;;;1.10;0.80;;;14.60;20.80;;;;;;5097537;28;20910;-56
2023/07/26 04:43:20;;;;;;;1.30;1.00;;;14.80;16.20;;;;;;5096669;28;20429;-54
2023/07/26 04:45:48;;;;;;;1.52;1.00;;;14.90;1.00;;;;;;5096830;28;20422;-57
2023/07/26 04:48:17;;;;;;;2.50;1.00;;;15.00;1.00;;;;;;5097046;28;20501;-54
2023/07/26 04:50:44;;;;;;;3.60;1.00;;;15.00;1.00;;;;;;5096733;28;20947;-56
2023/07/26 04:53:11;;;;;;;2.30;0.90;;;15.00;1.00;;;;;;5094774;28;20421;-54
2023/07/26 04:55:43;;;;;;;2.22;0.80;;;15.00;1.00;;;;;;5095284;28;20429;-54
2023/07/26 04:58:10;;;;;;;1.08;0.90;;;15.00;1.00;;;;;;5095287;28;20486;-56
2023/07/26 05:00:39;;;;;;;1.30;0.90;;;15.00;1.00;;;;;;5094447;28;20430;-53
2023/07/26 05:03:06;;;;;;;1.20;0.90;;;15.10;1.00;;;;;;5095089;28;20516;-54
2023/07/26 05:05:35;;;;;;;1.40;0.80;;;15.10;1.00;;;;;;5097188;28;20491;-55
2023/07/26 05:08:02;;;;;;;1.50;0.90;;;15.30;1.00;;;;;;5096517;28;20426;-55
2023/07/26 05:10:29;;;;;;;1.50;0.80;;;15.30;1.00;;;;;;5097024;28;20844;-56
2023/07/26 05:12:57;;;;;;;2.28;1.20;;;15.30;1.00;;;;;;5095510;28;20430;-55
2023/07/26 05:15:24;;;;;;;1.40;1.00;;;15.30;1.00;;;;;;5094966;28;20852;-56
2023/07/26 05:17:51;;;;;;;1.80;1.00;;;15.30;1.00;;;;;;5092661;28;20438;-55
2023/07/26 05:20:19;;;;;;;1.40;1.03;;;15.30;1.00;;;;;;5091385;28;20421;-57
2023/07/26 05:22:47;;;;;;;1.80;1.00;;;15.20;1.00;;;;;;5092245;28;20421;-56
2023/07/26 05:25:14;;;;;;;1.30;1.00;;;15.20;1.00;;;;;;5092563;28;20413;-56
2023/07/26 05:27:41;;;;;;;1.70;0.82;;;15.10;1.00;;;;;;5093948;28;20425;-53
2023/07/26 05:30:09;;;;;;;1.47;0.90;;;15.20;1.00;;;;;;5096113;28;20849;-56
2023/07/26 05:32:36;;;;;;;1.13;0.90;;;15.20;1.00;;;;;;5094552;28;20869;-52
2023/07/26 05:35:03;;;;;;;1.38;0.90;;;15.10;1.00;;;;;;5093843;28;20711;-55
2023/07/26 05:37:34;;;;;;;1.30;0.85;;;15.00;1.00;;;;;;5092489;28;20433;-54
2023/07/26 05:40:04;;;;;;;1.80;1.02;;;14.90;1.00;;;;;;5092559;28;20721;-54
2023/07/26 05:42:31;;;;;;;1.63;0.93;;;14.90;1.00;;;;;;5093239;28;20425;-56
2023/07/26 05:44:58;;;;;;;1.58;0.90;;;14.90;1.00;;;;;;5092404;28;20453;-56
2023/07/26 05:47:25;;;;;;;1.20;0.90;;;15.10;1.00;;;;;;5093402;28;20432;-55
2023/07/26 05:49:52;;;;;;;1.80;0.90;;;14.90;1.00;;;;;;5092944;28;20434;-57
2023/07/26 05:52:19;;;;;;;1.40;0.90;;;14.90;1.00;;;;;;5094072;28;20879;-57
2023/07/26 05:54:46;;;;;;;1.00;0.80;;;15.10;1.00;;;;;;5092768;28;20482;-57
2023/07/26 05:57:15;;;;;;;1.30;0.90;;;15.30;1.00;;;;;;5090765;28;20430;-57
2023/07/26 05:59:42;;;;;;;1.60;0.90;;;15.50;1.00;;;;;;5091056;28;21027;-55
2023/07/26 06:02:09;;;;;;;1.60;0.90;;;15.60;1.00;;;;;;5089183;28;20783;-53
2023/07/26 06:04:36;;;;;;;1.00;0.90;;;15.70;1.00;;;;;;5089500;28;20980;-57
2023/07/26 06:07:03;;;;;;;2.40;0.90;;;15.70;1.00;;;;;;5092902;28;20418;-54
2023/07/26 06:09:30;;;;;;;1.85;1.00;;;15.60;1.00;;;;;;5092204;28;20414;-57
2023/07/26 06:11:57;;;;;;;1.10;0.80;;;16.10;1.00;;;;;;5093837;28;20425;-56
2023/07/26 06:14:25;;;;;;;2.45;1.10;;;16.10;1.00;;;;;;5084935;28;20496;-55
2023/07/26 06:16:53;;;;;;;2.22;0.90;;;16.00;1.00;;;;;;5068729;28;20505;-52
2023/07/26 06:19:20;;;;;;;0.90;0.80;;;16.10;1.00;;;;;;5071565;28;20439;-54
2023/07/26 06:21:47;;;;;;;1.70;0.90;;;16.10;1.00;;;;;;5069822;28;20423;-55
2023/07/26 06:24:14;;;;;;;1.60;0.90;;;16.20;1.00;;;;;;5071251;28;20761;-54
2023/07/26 06:26:41;;;;;;;1.00;0.70;;;16.40;1.00;;;;;;5068160;28;20518;-55
2023/07/26 06:29:07;;;;;;;1.88;1.00;;;16.50;1.00;;;;;;5067453;28;20738;-51
2023/07/26 06:31:36;;;;;;;2.85;1.20;;;16.50;1.00;;;;;;5065125;28;20497;-55
2023/07/26 06:34:03;;;;;;;2.50;0.90;;;16.30;1.00;;;;;;5056819;28;20489;-55
2023/07/26 06:36:30;;;;;;;4.20;1.10;;;16.10;1.00;;;;;;5071314;28;20473;-56
2023/07/26 06:38:57;;;;;;;1.52;0.90;;;16.00;1.00;;;;;;5062864;28;20439;-53
2023/07/26 06:41:24;;;;;;;2.03;1.40;;;16.10;1.00;;;;;;5068380;28;20431;-54
2023/07/26 06:43:51;;;;;;;1.30;0.93;;;16.00;1.00;;;;;;5068169;28;20500;-46
2023/07/26 06:46:18;;;;;;;1.67;1.00;;;16.10;1.00;;;;;;5048293;28;20473;-50
2023/07/26 06:48:46;;;;;;;1.30;0.85;;;16.00;1.00;;;;;;5069991;28;20436;-45
2023/07/26 06:51:13;;;;;;;1.40;1.00;;;16.10;1.00;;;;;;5066961;28;20443;-44
2023/07/26 06:53:40;;;;;;;1.58;1.00;;;16.00;1.00;;;;;;5070596;28;20420;-46
2023/07/26 06:56:07;;;;;;;1.27;1.00;;;16.00;1.00;;;;;;5069022;28;20423;-47
2023/07/26 06:58:34;;;;;;;1.33;0.90;;;16.00;1.00;;;;;;5066915;28;20435;-45
2023/07/26 07:01:01;;;;;;;2.30;0.80;;;16.00;1.00;;;;;;5056728;28;20499;-43
2023/07/26 07:03:29;;;;;;;1.90;0.80;;;16.10;1.00;;;;;;5066075;28;20440;-44
2023/07/26 07:05:57;;;;;;;1.25;0.80;;;16.00;1.00;;;;;;5067831;28;20474;-46
2023/07/26 07:08:25;;;;;;;1.10;0.80;;;16.00;1.00;;;;;;5061833;28;20429;-46
2023/07/26 07:10:52;;;;;;;1.45;0.80;;;16.20;1.00;;;;;;5051127;28;20431;-44
2023/07/26 07:13:19;;;;;;;1.33;0.90;;;16.40;1.00;;;;;;5067027;28;20427;-48
2023/07/26 07:15:46;;;;;;;1.20;1.00;;;16.40;1.00;;;;;;5064591;28;20450;-48
2023/07/26 07:18:14;;;;;;;1.80;0.80;;;16.30;1.00;;;;;;5066723;28;20514;-49
2023/07/26 07:20:41;;;;;;;1.00;0.90;;;16.30;1.00;;;;;;5059586;28;20487;-48
2023/07/26 07:23:09;;;;;;;1.93;0.90;;;16.40;1.00;;;;;;5048745;28;20789;-50
2023/07/26 07:25:38;;;;;;;1.10;1.00;;;16.30;1.00;;;;;;5066802;28;20715;-51
2023/07/26 07:28:05;;;;;;;2.40;1.00;;;16.20;1.00;;;;;;5059483;28;20737;-50
2023/07/26 07:30:33;;;;;;;2.80;1.40;;;16.10;1.00;;;;;;5068377;28;20920;-46
2023/07/26 07:33:00;;;;;;;2.72;1.30;;;15.80;57.70;;;;;;5069986;28;20747;-45
2023/07/26 07:35:27;;;;;;;2.03;1.13;;;15.50;82.70;;;;;;5068800;28;20944;-48
2023/07/26 07:37:54;;;;;;;1.77;1.10;;;15.40;99.90;;;;;;5064336;28;21206;-49
2023/07/26 07:40:22;;;;;;;2.10;1.10;;;15.30;99.90;;;;;;5068460;28;20482;-45
2023/07/26 07:42:49;;;;;;;2.40;1.15;;;15.40;99.90;;;;;;5064666;28;20435;-47
2023/07/26 07:45:16;;;;;;;1.40;1.10;;;15.30;99.90;;;;;;5068772;28;20427;-49
2023/07/26 07:47:43;;;;;;;1.50;1.10;;;15.20;99.90;;;;;;5068051;28;20415;-47
2023/07/26 07:50:11;;;;;;;2.53;1.50;;;15.10;99.90;;;;;;5066221;28;20775;-48
2023/07/26 07:52:38;;;;;;;1.20;1.10;;;15.00;99.90;;;;;;5046369;28;20441;-50
2023/07/26 07:55:05;;;;;;;1.90;1.20;;;15.00;99.90;;;;;;5060640;28;20893;-52
2023/07/26 07:57:34;;;;;;;3.70;1.17;;;15.10;99.90;;;;;;5066678;28;20469;-49
2023/07/26 08:00:01;;;;;;;3.42;1.10;;;15.00;99.90;;;;;;5066419;28;20481;-52
2023/07/26 08:02:28;;;;;;;2.22;1.05;;;15.00;99.90;;;;;;5067147;28;20903;-47
2023/07/26 08:04:55;;;;;;;2.60;1.10;;;15.00;99.90;;;;;;5059035;28;20798;-48
2023/07/26 08:07:21;;;;;;;2.00;1.00;;;15.00;99.90;;;;;;5069463;28;20855;-50
2023/07/26 08:09:48;;;;;;;1.67;1.10;;;15.00;99.90;;;;;;5069552;28;20439;-49
2023/07/26 08:12:15;;;;;;;1.70;1.10;;;14.90;99.90;;;;;;5070839;28;20442;-52
2023/07/26 08:14:48;;;;;;;1.80;1.10;;;14.90;99.90;;;;;;5071091;28;20443;-51
2023/07/26 08:17:15;;;;;;;1.60;1.00;;;14.90;99.90;;;;;;5073859;28;20431;-48
2023/07/26 08:19:42;;;;;;;1.40;1.10;;;14.90;99.90;;;;;;5075352;28;20427;-48
2023/07/26 08:22:09;;;;;;;1.70;0.90;;;15.10;99.90;;;;;;5074996;28;20439;-45
2023/07/26 08:24:36;;;;;;;1.20;0.90;;;15.30;99.90;;;;;;5064268;28;20510;-49
2023/07/26 08:27:06;;;;;;;1.10;0.80;;;15.30;99.90;;;;;;5053877;28;20784;-48
2023/07/26 08:29:33;;;;;;;1.30;0.90;;;15.40;99.90;;;;;;5051901;28;20721;-49
2023/07/26 08:32:01;;;;;;;1.00;0.80;;;15.50;99.90;;;;;;5050923;28;20433;-48
2023/07/26 08:34:28;;;;;;;1.10;0.85;;;15.70;97.10;;;;;;5057940;28;20475;-46
2023/07/26 08:36:55;;;;;;;1.80;0.80;;;15.60;30.20;;;;;;5071020;28;20502;-49
2023/07/26 08:39:22;;;;;;;1.30;0.80;;;15.70;41.60;;;;;;5072056;28;20431;-47
2023/07/26 08:41:50;;;;;;;1.20;0.80;;;15.90;35.90;;;;;;5064444;28;20486;-49
2023/07/26 08:44:17;;;;;;;1.60;0.90;;;16.00;21.60;;;;;;5071192;28;20486;-47
2023/07/26 08:46:46;;;;;;;1.00;0.80;;;15.90;16.30;;;;;;5074825;28;20682;-49
2023/07/26 08:49:15;;;;;;;1.02;0.80;;;15.80;38.80;;;;;;5073047;28;20492;-48
2023/07/26 08:51:43;;;;;;;0.87;0.70;;;15.80;1.00;;;;;;5072210;28;20504;-47
2023/07/26 08:54:10;;;;;;;0.80;0.60;;;15.80;1.00;;;;;;5072859;28;20436;-51
2023/07/26 08:56:37;;;;;;;0.80;0.60;;;15.80;1.00;;;;;;5072811;28;20668;-49
2023/07/26 08:59:04;;;;;;;0.80;0.60;;;15.90;1.00;;;;;;5067550;28;20763;-48
2023/07/26 09:01:32;;;;;;;1.33;0.60;;;16.10;1.00;;;;;;5062687;28;20558;-48
2023/07/26 09:03:59;;;;;;;0.90;0.60;;;16.30;1.00;;;;;;5063289;28;20433;-50
2023/07/26 09:06:28;;;;;;;0.90;0.50;;;16.50;1.00;;;;;;5059272;28;20475;-46
2023/07/26 09:08:55;;;;;;;0.60;0.40;;;16.70;1.00;;;;;;5051382;28;20436;-48
2023/07/26 09:11:24;;;;;;;0.70;0.30;;;16.80;1.00;;;;;;5066438;28;20932;-49
2023/07/26 09:13:55;;;;;;;0.60;0.30;;;16.80;99.90;;;;;;5054044;28;20437;-46
2023/07/26 09:16:22;;;;;;;0.60;0.30;;;16.90;1.00;;;;;;5069177;28;20908;-49
2023/07/26 09:18:57;;;;;;;0.40;0.30;;;17.00;99.90;;;;;;5070065;28;20439;-49
2023/07/26 09:21:28;;;;;;;0.50;0.30;;;16.60;99.90;;;;;;5060700;28;20423;-50
2023/07/26 09:23:55;;;;;;;0.50;0.30;;;16.50;1.00;;;;;;5061914;28;20479;-49
2023/07/26 09:26:35;;;;;;;0.90;0.30;;;16.30;99.90;;;;;;5059710;28;20429;-52
2023/07/26 09:29:02;;;;;;;0.50;0.30;;;16.40;1.00;;;;;;5062884;28;20740;-49
2023/07/26 09:31:33;;;;;;;0.45;0.30;;;16.50;1.00;;;;;;5062786;28;20429;-51
2023/07/26 09:34:04;;;;;;;0.50;0.30;;;16.50;1.00;;;;;;5067782;28;20497;-50
2023/07/26 09:36:43;;;;;;;0.77;0.30;;;16.60;1.00;;;;;;5060816;28;20427;-53
2023/07/26 09:39:10;;;;;;;1.20;0.50;;;16.40;1.00;;;;;;5069076;28;20512;-52
2023/07/26 09:41:38;;;;;;;0.50;0.30;;;16.40;1.00;;;;;;5070598;28;20418;-51
2023/07/26 09:44:06;;;;;;;0.60;0.40;;;16.30;1.00;;;;;;5060486;28;20671;-53
2023/07/26 09:46:47;;;;;;;0.50;0.30;;;16.30;1.00;;;;;;5055594;28;20428;-51
2023/07/26 09:49:14;;;;;;;0.60;0.40;;;16.10;1.00;;;;;;5064387;28;20517;-50
2023/07/26 09:51:43;;;;;;;0.63;0.30;;;15.90;1.00;;;;;;5065708;28;20455;-51
2023/07/26 09:54:11;;;;;;;0.60;0.40;;;16.00;1.00;;;;;;5055859;28;20485;-52
2023/07/26 09:56:40;;;;;;;0.93;0.40;;;16.30;1.00;;;;;;5069341;28;20415;-51
2023/07/26 09:59:10;;;;;;;0.80;0.50;;;16.40;1.00;;;;;;5061620;28;20488;-52
2023/07/26 10:01:41;;;;;;;0.60;0.40;;;16.50;1.00;;;;;;5055749;28;20449;-49
2023/07/26 10:04:12;;;;;;;0.70;0.40;;;16.80;1.00;;;;;;5069803;28;20450;-54
2023/07/26 10:06:43;;;;;;;0.80;0.40;;;17.10;1.00;;;;;;5070475;28;20522;-49
2023/07/26 10:09:14;;;;;;;0.50;0.40;;;17.40;1.00;;;;;;5049812;28;20433;-51
2023/07/26 10:11:44;;;;;;;0.60;0.40;;;17.60;1.00;;;;;;5069902;28;20901;-50
2023/07/26 10:14:12;;;;;;;0.80;0.40;;;17.80;1.00;;;;;;5060770;28;20931;-54
2023/07/26 10:16:40;;;;;;;0.60;0.30;;;17.70;99.90;;;;;;5057353;28;20439;-53
2023/07/26 10:19:08;;;;;;;0.50;0.30;;;17.60;1.00;;;;;;5060975;28;20440;-51
2023/07/26 10:21:36;;;;;;;0.70;0.30;;;17.60;1.00;;;;;;5070823;28;20778;-51
2023/07/26 10:24:06;;;;;;;0.60;0.40;;;17.60;99.90;;;;;;5070825;28;20536;-53
2023/07/26 10:26:35;;;;;;;0.80;0.40;;;17.60;1.00;;;;;;5069771;28;20832;-51
2023/07/26 10:29:02;;;;;;;0.70;0.40;;;17.50;99.90;;;;;;5055004;28;20437;-49
2023/07/26 10:31:30;;;;;;;0.60;0.40;;;17.60;1.00;;;;;;5069764;28;20489;-52
2023/07/26 10:33:58;;;;;;;0.95;0.40;;;17.40;99.90;;;;;;5070553;28;20431;-51
2023/07/26 10:36:29;;;;;;;0.70;0.40;;;17.30;99.90;;;;;;5069509;28;20415;-54
2023/07/26 10:38:57;;;;;;;0.90;0.40;;;17.40;99.90;;;;;;5068254;28;20669;-50
2023/07/26 10:41:27;;;;;;;0.90;0.50;;;17.60;99.90;;;;;;5073590;28;20508;-50
2023/07/26 10:44:06;;;;;;;0.95;0.40;;;18.00;38.90;;;;;;5068704;28;20745;-53
2023/07/26 10:46:48;;;;;;;0.70;0.40;;;18.40;43.40;;;;;;5065187;28;20470;-51
2023/07/26 10:49:20;;;;;;;0.70;0.40;;;18.40;99.90;;;;;;5065907;28;20447;-53
2023/07/26 10:51:56;;;;;;;0.93;0.50;;;18.40;1.00;;;;;;5065589;28;20522;-51
2023/07/26 10:54:34;;;;;;;0.50;0.40;;;18.50;1.00;;;;;;5064036;28;20467;-53
2023/07/26 10:57:19;;;;;;;2.00;0.50;;;18.50;1.00;;;;;;5069326;28;20435;-50
2023/07/26 10:59:57;;;;;;;1.43;0.40;;;18.70;1.00;;;;;;5060508;28;20434;-53
2023/07/26 11:02:39;;;;;;;0.70;0.50;;;18.80;1.00;;;;;;5067096;28;20536;-53
2023/07/26 11:05:10;;;;;;;0.80;0.60;;;18.80;1.00;;;;;;5064561;28;20439;-50
2023/07/26 11:07:54;;;;;;;1.17;0.50;;;18.90;1.00;;;;;;5067592;28;20955;-51
2023/07/26 11:10:22;;;;;;;0.60;0.40;;;19.00;1.00;;;;;;5069069;28;20556;-52
2023/07/26 11:13:04;;;;;;;1.10;0.60;;;19.20;1.00;;;;;;5068770;28;20431;-54
2023/07/26 11:15:31;;;;;;;1.15;0.50;;;19.40;1.00;;;;;;5068889;28;20428;-51
2023/07/26 11:17:58;;;;;;;0.60;0.40;;;19.30;99.90;;;;;;5068368;28;20423;-50
2023/07/26 11:20:25;;;;;;;0.90;0.50;;;19.10;1.00;;;;;;5070356;28;20429;-50
2023/07/26 11:22:53;;;;;;;0.70;0.40;;;19.10;1.00;;;;;;5065590;28;20498;-49
2023/07/26 11:25:20;;;;;;;0.60;0.40;;;19.20;99.90;;;;;;5061533;28;20431;-51
2023/07/26 11:27:48;;;;;;;1.30;0.40;;;19.00;81.00;;;;;;5062111;28;20877;-52
2023/07/26 11:30:17;;;;;;;0.70;0.50;;;18.90;99.90;;;;;;5057047;28;20416;-53
2023/07/26 11:32:45;;;;;;;1.10;0.50;;;19.30;1.00;;;;;;5041358;28;20449;-48
2023/07/26 11:35:12;;;;;;;0.90;0.60;;;19.20;1.00;;;;;;5064376;28;20834;-52
2023/07/26 11:37:39;;;;;;;1.00;0.60;;;19.30;99.90;;;;;;5045533;28;20479;-50
2023/07/26 11:40:09;;;;;;;0.60;0.40;;;19.40;99.90;;;;;;5057606;28;20497;-53
2023/07/26 11:42:36;;;;;;;0.83;0.40;;;19.80;1.00;;;;;;5067574;28;20855;-51
2023/07/26 11:45:04;;;;;;;1.50;0.50;;;20.40;1.00;;;;;;5061011;28;20865;-52
2023/07/26 11:47:35;;;;;;;1.00;0.40;;;21.00;99.90;;;;;;5070113;28;20439;-52
2023/07/26 11:50:03;;;;;;;0.70;0.40;;;21.20;99.90;;;;;;5062338;28;20762;-53
2023/07/26 11:52:30;;;;;;;1.30;0.60;;;21.30;99.90;;;;;;5075180;28;20869;-48
2023/07/26 11:54:58;;;;;;;0.73;0.50;;;21.40;25.90;;;;;;5061050;28;20694;-50
2023/07/26 11:57:26;;;;;;;0.68;0.50;;;21.70;81.40;;;;;;5070552;28;20834;-50
2023/07/26 11:59:55;;;;;;;0.82;0.55;;;21.30;1.00;;;;;;5073177;28;20431;-54
2023/07/26 12:02:24;;;;;;;0.80;0.50;;;20.90;1.00;;;;;;5074173;28;20538;-53
2023/07/26 12:05:25;;;;;;;0.70;0.40;;;21.00;1.00;;;;;;5070818;28;20932;-52
2023/07/26 12:07:54;;;;;;;2.00;0.70;;;21.50;1.00;;;;;;4961012;28;20442;-51
2023/07/26 12:10:29;;;;;;;0.80;0.50;;;22.00;1.00;;;;;;5038265;28;20438;-54
2023/07/26 12:12:56;;;;;;;1.40;0.50;;;21.60;1.00;;;;;;5052277;28;20444;-53
2023/07/26 12:15:24;;;;;;;0.70;0.40;;;21.70;1.00;;;;;;5051426;28;20448;-51
2023/07/26 12:17:59;;;;;;;1.00;0.50;;;21.80;1.00;;;;;;5069087;28;20790;-51
2023/07/26 12:20:29;;;;;;;1.35;0.50;;;22.20;1.00;;;;;;5062870;28;20532;-50
2023/07/26 12:22:58;;;;;;;1.48;0.50;;;22.40;1.00;;;;;;5061595;28;20866;-50
2023/07/26 12:25:34;;;;;;;1.00;0.60;;;22.30;1.00;;;;;;5067245;28;20442;-50
2023/07/26 12:28:02;;;;;;;0.88;0.50;;;22.10;1.00;;;;;;5059414;28;20764;-48
2023/07/26 12:30:29;;;;;;;0.70;0.50;;;21.90;1.00;;;;;;5064494;28;20438;-49
2023/07/26 12:33:10;;;;;;;1.30;0.50;;;21.40;1.00;;;;;;5050023;28;20445;-48
2023/07/26 12:35:40;;;;;;;0.80;0.50;;;21.30;1.00;;;;;;5060139;28;20469;-53
2023/07/26 12:38:11;;;;;;;1.30;0.40;;;21.20;1.00;;;;;;5069514;28;20431;-51
2023/07/26 12:40:39;;;;;;;0.73;0.52;;;21.00;1.00;;;;;;5069336;28;20873;-54
2023/07/26 12:43:23;;;;;;;0.90;0.60;;;20.80;1.00;;;;;;5068223;28;20443;-50
2023/07/26 12:45:49;;;;;;;0.70;0.50;;;20.70;1.00;;;;;;5071137;28;20431;-49
2023/07/26 12:48:16;;;;;;;0.80;0.50;;;20.50;1.00;;;;;;5066521;28;20480;-52
2023/07/26 12:50:45;;;;;;;1.00;0.47;;;20.30;1.00;;;;;;5068755;28;20481;-53
2023/07/26 12:53:13;;;;;;;0.80;0.50;;;20.30;1.00;;;;;;5067642;28;20496;-52
2023/07/26 12:55:40;;;;;;;0.80;0.50;;;19.70;1.00;;;;;;5071709;28;20956;-52
2023/07/26 12:58:08;;;;;;;1.15;0.60;;;19.40;99.90;;;;;;5070934;28;20448;-52